METAR Data
IDs: Format: Raw Decoded Include TAF

Data at: 1453 UTC 18 Aug 2019

PAOR 181353Z 34004KT 10SM FEW050 BKN065 04/01 A3030 RMK AO2 SLP274 T00440006
PAOR 181253Z 33004KT 10SM FEW050 BKN065 05/01 A3031 RMK AO2 SLP278 T00500006
PAOR 181153Z 35004KT 10SM SCT045 BKN075 06/00 A3033 RMK AO2 SLP281 70001 T00560000 10072 20039 58007
PAOR 181053Z 34003KT 10SM SCT070 04/01 A3033 RMK AO2 SLP286 T00440006
PAOR 180953Z 00000KT 10SM SCT070 05/01 A3034 RMK AO2 SLP289 T00500006
PAOR 180853Z 33003KT 10SM SCT060 BKN095 BKN240 06/00 A3035 RMK AO2 SLP290 T00560000 401330050 56011
PAOR 180753Z 34003KT 10SM FEW060 SCT095 SCT240 06/M01 A3036 RMK AO2 SLP294 T00611006
PAOR 180653Z 36003KT 10SM FEW060 SCT095 SCT240 06/00 A3037 RMK AO2 SLP297 T00610000
PAOR 180553Z 34004KT 10SM FEW060 SCT100 SCT240 05/M01 A3038 RMK AO2 SLP304 T00501006 10133 20050 50001
PAOR 180453Z AUTO 33004KT 10SM CLR 07/M01 A3039 RMK AO2 SLP307 T00721011 TSNO
PAOR 180353Z AUTO 35006G15KT 10SM BKN060 09/M02 A3039 RMK AO2 SLP304 T00941017 TSNO
PAOR 180253Z AUTO 01006KT 10SM BKN060 10/M01 A3038 RMK AO2 SLP301 T01001011 51007 TSNO
PAOR 180153Z AUTO 02011G19KT 10SM OVC060 12/M02 A3038 RMK AO2 SLP299 T01171022 TSNO
PAOR 180053Z AUTO 35013G20KT 10SM BKN060 12/M02 A3037 RMK AO2 SLP295 T01221017 TSNO
PAOR 172353Z 35009G21KT 320V030 10SM FEW055 FEW250 13/M01 A3036 RMK AO2 SLP291 T01281011 10133 20100 51004
PAOR 172253Z 35010G18KT 10SM FEW080 FEW250 12/M01 A3035 RMK AO2 SLP289 T01221011
PAOR 172153Z COR 35007G17KT 320V030 10SM SCT080 12/M01 A3035 RMK AO2 SLP288 T01221011
PAOR 172053Z 36010G22KT 10SM SCT070 SCT150 12/M01 A3034 RMK AO2 SLP283 T01221011 51006
PAOR 171953Z 34009G19KT 320V020 10SM SCT070 SCT150 12/00 A3034 RMK AO2 SLP283 T01170000
PAOR 171853Z 34010G18KT 10SM SCT025 SCT065 12/02 A3033 RMK AO2 SLP280 T01170017
PAOR 171753Z 33010G15KT 10SM FEW020 SCT026 BKN033 10/04 A3032 RMK AO2 SLP278 60001 T01000044 10106 20061 53021
PAOR 171653Z 33011KT 10SM SCT025 08/04 A3029 RMK AO2 SLP269 T00830044
PAOR 171553Z 32014G22KT 10SM CLR 07/04 A3026 RMK AO2 RAE1456 SLP261 P0000 T00720044
PAOR 171453Z AUTO 32011G19KT 10SM -RA SCT028 BKN037 OVC044 07/04 A3026 RMK AO2 RAB30 SLP259 P0000 60001 T00670044 53027 TSNO
PAOR 171353Z 31012G19KT 10SM FEW014 BKN044 OVC090 06/04 A3022 RMK AO2 PK WND 31026/1321 SLP247 T00610039
PAOR 171253Z 32013G23KT 10SM SCT025 BKN070 BKN090 06/04 A3020 RMK AO2 RAE29 SLP238 P0001 T00610039
PAOR 171153Z 31015G29KT 10SM -RA FEW020 OVC025 07/04 A3017 RMK AO2 PK WND 32029/1150 RAB24 SLP229 P0000 60000 70047 T00670039 10111 20067 51043
PAOR 171053Z 32016G29KT 10SM SCT014 BKN020 OVC042 08/04 A3012 RMK AO2 PK WND 33029/1047 RAE35 SLP210 P0000 T00780044
PAOR 171025Z 30012G23KT 10SM -RA SCT015 BKN020 OVC042 08/06 A3012 RMK AO2 PK WND 31028/0956 P0000 T00830061
PAOR 170953Z 31013G24KT 10SM -RA SCT022 BKN035 BKN090 09/07 A3010 RMK AO2 PK WND 31026/0934 PRESRR SLP201 P0000 T00940067
PAOR 170853Z 26005KT 10SM -RA SCT022 BKN035 BKN090 11/08 A3004 RMK AO2 RAE0757B24 SLP179 P0000 60000 T01060078 401280100 56008
PAOR 170753Z VRB03KT 10SM -RA SCT022 BKN035 BKN090 11/08 A3005 RMK AO2 SLP182 P0000 T01110078
PAOR 170653Z 31012G19KT 10SM -RA SCT025 BKN035 BKN090 11/08 A3005 RMK AO2 SLP182 P0000 T01110078
PAOR 170553Z 30009G16KT 10SM -RA SCT025 BKN035 BKN090 11/08 A3007 RMK AO2 RAB15 SLP189 P0000 60006 T01110083 10122 20106 56006
PAOR 170453Z AUTO 00000KT 10SM FEW050 SCT070 OVC090 11/08 A3007 RMK AO2 RAB05E51 SLP190 P0001 T01060083 TSNO
PAOR 170353Z AUTO 00000KT 10SM FEW055 SCT070 OVC095 11/09 A3008 RMK AO2 RAE47 SLP195 P0000 T01060089 TSNO